createdAt,value
2022-12-12T00:00:27.007Z,99375.22
2022-12-12T00:01:38.830Z,99379.38
2022-12-12T00:02:41.772Z,99370.81
2022-12-12T00:03:43.874Z,99360.56
2022-12-12T00:04:47.280Z,99359.78
2022-12-12T00:05:49.240Z,99358.91
2022-12-12T00:06:52.489Z,99381.19
2022-12-12T00:07:54.402Z,99385.38
2022-12-12T00:08:56.935Z,99385.38
2022-12-12T00:09:58.717Z,99374.31
2022-12-12T00:11:00.595Z,99376.09
2022-12-12T00:12:02.748Z,99378.69
2022-12-12T00:13:06.173Z,99377.84
2022-12-12T00:14:08.228Z,99369.34
2022-12-12T00:15:13.285Z,99372.75
2022-12-12T00:16:15.829Z,99371.09
2022-12-12T00:17:18.910Z,99368.50
2022-12-12T00:18:20.618Z,99379.66
2022-12-12T00:19:22.192Z,99358.25
2022-12-12T00:20:24.025Z,99380.44
2022-12-12T00:21:31.081Z,99362.41
2022-12-12T00:22:32.776Z,99381.28
2022-12-12T00:23:34.788Z,99376.16
2022-12-12T00:24:36.576Z,99371.03
2022-12-12T00:25:38.306Z,99379.63
2022-12-12T00:26:40.334Z,99379.63
2022-12-12T00:27:42.759Z,99359.97
2022-12-12T00:28:44.857Z,99377.94
2022-12-12T00:29:52.257Z,99358.34
2022-12-12T00:30:54.720Z,99365.25
2022-12-12T00:31:56.260Z,99366.13
2022-12-12T00:32:57.868Z,99377.19
2022-12-12T00:33:59.973Z,99367.94
2022-12-12T00:35:01.995Z,99356.84
2022-12-12T00:36:04.161Z,99364.53
2022-12-12T00:37:08.862Z,99367.09
2022-12-12T00:38:11.746Z,99360.25
2022-12-12T00:39:18.194Z,99355.91
2022-12-12T00:40:21.644Z,99369.56
2022-12-12T00:41:23.728Z,99344.78
2022-12-12T00:42:27.781Z,99362.72
2022-12-12T00:43:29.807Z,99371.25
2022-12-12T00:44:34.541Z,99372.03
2022-12-12T00:45:37.759Z,99376.34
2022-12-12T00:46:39.922Z,99360.00
2022-12-12T00:47:41.546Z,99400.13
2022-12-12T00:48:44.291Z,99373.75
2022-12-12T00:49:45.970Z,99377.09
2022-12-12T00:50:47.590Z,99383.91
2022-12-12T00:51:49.824Z,99375.38
2022-12-12T00:52:51.858Z,99375.34
2022-12-12T00:53:53.845Z,99384.72
2022-12-12T00:54:56.479Z,99388.97
2022-12-12T00:55:59.308Z,99376.16
2022-12-12T00:57:01.198Z,99365.78
2022-12-12T00:58:03.379Z,99373.50
2022-12-12T00:59:05.286Z,99386.34
2022-12-12T01:00:11.048Z,99386.34
2022-12-12T01:01:16.837Z,99365.88
2022-12-12T01:02:27.809Z,99384.72
2022-12-12T01:03:32.992Z,99387.28
2022-12-12T01:04:34.958Z,99393.25
2022-12-12T01:05:36.845Z,99382.13
2022-12-12T01:06:38.533Z,99389.91
2022-12-12T01:07:41.379Z,99385.66
2022-12-12T01:08:43.569Z,99364.28
2022-12-12T01:09:45.133Z,99354.94
2022-12-12T01:10:47.032Z,99357.47
2022-12-12T01:11:48.942Z,99382.28
2022-12-12T01:12:50.725Z,99372.91
2022-12-12T01:13:53.781Z,99383.19
2022-12-12T01:14:55.506Z,99382.25
2022-12-12T01:15:59.583Z,99374.69
2022-12-12T01:17:01.247Z,99380.69
2022-12-12T01:18:03.022Z,99363.56
2022-12-12T01:19:05.034Z,99348.16
2022-12-12T01:20:15.755Z,99389.19
2022-12-12T01:21:19.179Z,99389.19
2022-12-12T01:22:20.751Z,99398.56
2022-12-12T01:23:24.218Z,99396.91
2022-12-12T01:24:25.793Z,99398.59
2022-12-12T01:25:28.010Z,99388.34
2022-12-12T01:26:30.035Z,99393.47
2022-12-12T01:27:34.169Z,99373.81
2022-12-12T01:28:36.452Z,99400.28
2022-12-12T01:29:39.447Z,99407.09
2022-12-12T01:30:41.689Z,99378.88
2022-12-12T01:31:44.167Z,99410.50
2022-12-12T01:32:45.799Z,99413.88
2022-12-12T01:33:48.323Z,99366.81
2022-12-12T01:34:50.137Z,99401.81
2022-12-12T01:35:52.330Z,99395.84
2022-12-12T01:36:54.086Z,99410.34
2022-12-12T01:37:55.679Z,99420.50
2022-12-12T01:38:58.333Z,99412.81
2022-12-12T01:40:01.432Z,99410.16
2022-12-12T01:41:03.492Z,99417.88
2022-12-12T01:42:13.292Z,99420.47
2022-12-12T01:43:18.609Z,99406.75
2022-12-12T01:44:48.580Z,99417.81
2022-12-12T01:46:17.059Z,99429.69
2022-12-12T01:47:21.961Z,99416.91
2022-12-12T01:48:30.620Z,99418.72
2022-12-12T01:49:34.454Z,99419.56
2022-12-12T01:50:36.015Z,99432.38
2022-12-12T01:51:42.165Z,99388.72
2022-12-12T01:52:48.510Z,99396.50
2022-12-12T01:54:04.593Z,99418.78
2022-12-12T01:55:10.970Z,99424.81
2022-12-12T01:56:17.342Z,99412.03
2022-12-12T01:57:36.560Z,99403.53
2022-12-12T01:58:42.097Z,99429.16
2022-12-12T01:59:46.121Z,99420.63
2022-12-12T02:00:48.890Z,99428.34
2022-12-12T02:01:52.575Z,99428.34
2022-12-12T02:02:57.616Z,99425.75
2022-12-12T02:04:01.705Z,99417.22
2022-12-12T02:05:27.516Z,99412.94
2022-12-12T02:06:30.713Z,99457.28
2022-12-12T02:07:32.392Z,99425.72
2022-12-12T02:08:39.047Z,99439.41
2022-12-12T02:09:41.630Z,99432.63
2022-12-12T02:10:45.968Z,99434.31
2022-12-12T02:11:53.165Z,99430.03
2022-12-12T02:13:02.857Z,99433.44
2022-12-12T02:14:04.922Z,99423.16
2022-12-12T02:15:07.350Z,99438.53
2022-12-12T02:16:26.780Z,99436.84
2022-12-12T02:17:54.550Z,99434.25
2022-12-12T02:19:27.026Z,99437.69
2022-12-12T02:20:57.688Z,99442.78
2022-12-12T02:22:04.919Z,99441.91
2022-12-12T02:23:44.913Z,99436.78
2022-12-12T02:25:24.611Z,99444.44
